createdAt,value
2022-08-12T00:00:52.252Z,95936.00
2022-08-12T00:05:13.865Z,95940.00
2022-08-12T00:09:34.233Z,95926.00
2022-08-12T00:13:54.325Z,95927.00
2022-08-12T00:18:14.687Z,95929.00
2022-08-12T00:22:36.559Z,95925.00
2022-08-12T00:26:56.919Z,95927.00
2022-08-12T00:31:17.273Z,95918.00
2022-08-12T00:35:37.484Z,95923.00
2022-08-12T00:40:01.687Z,95920.00
2022-08-12T00:44:10.814Z,95915.00
2022-08-12T00:48:14.753Z,95905.00
2022-08-12T00:52:18.586Z,95910.00
2022-08-12T00:56:26.586Z,95908.00
2022-08-12T01:00:29.371Z,95908.00
2022-08-12T01:04:49.654Z,95903.00
2022-08-12T01:09:11.498Z,95903.00
2022-08-12T01:13:19.559Z,95898.00
2022-08-12T01:17:23.978Z,95897.00
2022-08-12T01:21:44.775Z,95884.00
2022-08-12T01:25:55.961Z,95887.00
2022-08-12T01:30:02.782Z,95888.00
2022-08-12T01:34:28.670Z,95892.00
2022-08-12T01:38:34.762Z,95881.00
2022-08-12T01:42:45.875Z,95885.00
2022-08-12T01:46:58.547Z,95890.00
2022-08-12T01:51:06.363Z,95879.00
2022-08-12T01:55:12.371Z,95883.00
2022-08-12T01:59:36.310Z,95870.00
2022-08-12T02:04:18.471Z,95867.00
2022-08-12T02:08:52.300Z,95871.00
2022-08-12T02:13:04.197Z,95864.00
2022-08-12T02:17:54.779Z,95865.00
2022-08-12T02:21:52.895Z,95863.00
2022-08-12T02:26:00.479Z,95867.00
2022-08-12T02:30:03.723Z,95856.00
2022-08-12T02:34:09.318Z,95851.00
2022-08-12T02:38:13.790Z,95853.00
2022-08-12T02:42:19.984Z,95841.00
2022-08-12T02:46:29.702Z,95843.00
2022-08-12T02:50:37.650Z,95846.00
2022-08-12T02:54:44.851Z,95847.00
2022-08-12T02:58:47.863Z,95845.00
2022-08-12T03:02:52.784Z,95856.00
2022-08-12T03:07:10.386Z,95851.00
2022-08-12T03:11:17.864Z,95844.00
2022-08-12T03:15:22.998Z,95839.00
2022-08-12T03:19:26.143Z,95838.00
2022-08-12T03:23:31.676Z,95834.00
2022-08-12T03:27:34.509Z,95843.00
2022-08-12T03:31:37.362Z,95849.00
2022-08-12T03:35:42.502Z,95847.00
2022-08-12T03:39:47.845Z,95841.00
2022-08-12T03:44:16.982Z,95846.00
2022-08-12T03:48:37.842Z,95851.00
2022-08-12T03:52:58.153Z,95845.00
2022-08-12T03:57:19.676Z,95841.00
2022-08-12T04:01:23.399Z,95850.00
2022-08-12T04:05:54.220Z,95837.00
2022-08-12T04:09:49.217Z,95842.00
2022-08-12T04:13:52.378Z,95827.00
2022-08-12T04:18:07.717Z,95828.00
2022-08-12T04:22:12.487Z,95833.00
2022-08-12T04:26:15.315Z,95834.00
2022-08-12T04:30:32.510Z,95837.00
2022-08-12T04:34:39.239Z,95830.00
2022-08-12T04:38:43.108Z,95842.00
2022-08-12T04:42:46.644Z,95843.00
2022-08-12T04:46:50.795Z,95844.00
2022-08-12T04:50:53.747Z,95833.00
2022-08-12T04:54:56.876Z,95835.00
2022-08-12T04:59:00.256Z,95841.00
2022-08-12T05:03:05.495Z,95855.00
2022-08-12T05:07:09.759Z,95847.00
2022-08-12T05:11:12.886Z,95850.00
2022-08-12T05:15:26.549Z,95849.00
2022-08-12T05:19:34.707Z,95855.00
2022-08-12T05:23:42.709Z,95860.00
2022-08-12T05:27:58.205Z,95852.00
2022-08-12T05:32:02.947Z,95856.00
2022-08-12T05:36:08.697Z,95855.00
2022-08-12T05:40:13.022Z,95868.00
2022-08-12T05:44:16.770Z,95862.00
2022-08-12T05:48:20.302Z,95860.00
2022-08-12T05:52:24.487Z,95854.00
2022-08-12T05:56:31.416Z,95853.00
2022-08-12T06:00:35.165Z,95848.00
2022-08-12T06:04:38.562Z,95844.00
2022-08-12T06:08:48.561Z,95838.00
2022-08-12T06:12:51.575Z,95840.00
2022-08-12T06:16:54.395Z,95842.00
2022-08-12T06:21:01.712Z,95853.00
2022-08-12T06:25:06.647Z,95853.00
2022-08-12T06:29:09.454Z,95851.00
2022-08-12T06:33:22.888Z,95860.00
2022-08-12T06:37:27.959Z,95873.00
2022-08-12T06:42:27.712Z,95859.00
2022-08-12T06:46:13.603Z,95865.00
2022-08-12T06:50:16.884Z,95869.00
2022-08-12T06:54:31.272Z,95879.00
2022-08-12T06:58:37.326Z,95880.00
2022-08-12T07:02:40.308Z,95886.00
2022-08-12T07:06:44.742Z,95883.00
2022-08-12T07:10:59.237Z,95875.00
2022-08-12T07:15:03.539Z,95878.00
2022-08-12T07:19:06.372Z,95880.00
2022-08-12T07:23:09.359Z,95872.00
2022-08-12T07:27:12.129Z,95885.00
2022-08-12T07:31:17.334Z,95879.00
2022-08-12T07:35:20.878Z,95879.00
2022-08-12T07:39:23.735Z,95889.00
2022-08-12T07:43:28.014Z,95890.00
2022-08-12T07:47:33.330Z,95896.00
2022-08-12T07:51:36.370Z,95890.00
2022-08-12T07:55:39.431Z,95895.00
2022-08-12T07:59:42.270Z,95902.00
2022-08-12T08:04:16.446Z,95890.00
2022-08-12T08:08:23.141Z,95884.00
2022-08-12T08:12:44.363Z,95886.00
2022-08-12T08:16:48.505Z,95887.00
2022-08-12T08:20:52.659Z,95893.00
2022-08-12T08:24:57.569Z,95881.00
2022-08-12T08:29:00.560Z,95879.00
2022-08-12T08:33:11.253Z,95879.00
2022-08-12T08:37:32.884Z,95877.00
2022-08-12T08:42:17.784Z,95881.00
2022-08-12T08:46:16.645Z,95881.00
2022-08-12T08:50:19.469Z,95885.00
2022-08-12T08:54:24.634Z,95875.00
2022-08-12T08:58:27.494Z,95866.00
2022-08-12T09:02:30.277Z,95872.00
2022-08-12T09:12:07.225Z,95872.00
2022-08-12T09:15:42.370Z,95871.00
2022-08-12T09:19:58.933Z,95867.00
2022-08-12T09:24:06.162Z,95863.00
2022-08-12T09:28:12.917Z,95862.00
2022-08-12T09:32:56.256Z,95860.00
2022-08-12T09:37:00.141Z,95860.00
2022-08-12T09:42:32.942Z,95851.00
2022-08-12T09:46:11.850Z,95854.00
2022-08-12T09:49:49.145Z,95858.00
2022-08-12T09:54:33.715Z,95875.00
2022-08-12T09:58:58.008Z,95853.00
2022-08-12T10:03:05.821Z,95861.00
2022-08-12T10:07:13.715Z,95854.00
2022-08-12T10:12:11.694Z,95873.00
2022-08-12T10:16:21.798Z,95878.00
2022-08-12T10:20:26.871Z,95879.00
2022-08-12T10:24:29.635Z,95888.00
2022-08-12T10:29:01.940Z,95882.00
2022-08-12T10:33:18.204Z,95879.00
2022-08-12T10:38:34.382Z,95879.00
2022-08-12T10:42:04.624Z,95883.00
2022-08-12T10:46:13.205Z,95887.00
2022-08-12T10:50:35.955Z,95877.00
2022-08-12T10:54:41.579Z,95866.00
2022-08-12T10:58:46.061Z,95856.00
2022-08-12T11:04:20.315Z,95846.00
2022-08-12T11:08:33.799Z,95852.00
2022-08-12T11:12:37.054Z,95844.00
2022-08-12T11:16:22.245Z,95833.00
2022-08-12T11:20:30.539Z,95832.00
2022-08-12T11:24:34.040Z,95838.00
2022-08-12T11:28:39.099Z,95831.00
2022-08-12T11:32:41.865Z,95821.00
2022-08-12T11:36:55.621Z,95820.00
2022-08-12T11:41:02.353Z,95816.00
2022-08-12T11:45:10.300Z,95814.00
2022-08-12T11:49:13.459Z,95811.00
2022-08-12T11:53:58.317Z,95822.00
2022-08-12T11:58:34.154Z,95812.00
2022-08-12T12:02:21.580Z,95804.00
2022-08-12T12:06:24.654Z,95797.00
2022-08-12T12:10:27.431Z,95826.00
2022-08-12T12:14:38.304Z,95821.00
2022-08-12T12:18:43.659Z,95822.00
2022-08-12T12:22:46.421Z,95778.00
2022-08-12T12:26:59.607Z,95783.00
2022-08-12T12:31:04.234Z,95765.00
2022-08-12T12:35:14.080Z,95754.00
2022-08-12T12:39:54.877Z,95762.00
2022-08-12T12:44:04.078Z,95792.00
2022-08-12T12:48:09.960Z,95765.00
2022-08-12T12:52:21.009Z,95740.00
2022-08-12T12:56:33.983Z,95780.00
2022-08-12T13:00:40.411Z,95800.00
2022-08-12T13:04:53.641Z,95754.00
2022-08-12T13:08:57.957Z,95753.00
2022-08-12T13:14:10.592Z,95759.00
2022-08-12T13:18:02.406Z,95766.00
2022-08-12T13:22:08.415Z,95765.00
2022-08-12T13:26:14.363Z,95751.00
2022-08-12T13:30:20.301Z,95791.00
2022-08-12T13:34:32.315Z,95757.00
2022-08-12T13:38:38.666Z,95758.00
2022-08-12T13:42:46.273Z,95753.00
2022-08-12T13:46:58.076Z,95786.00
2022-08-12T13:51:04.392Z,95756.00
2022-08-12T13:55:07.886Z,95757.00
2022-08-12T13:59:13.413Z,95762.00
2022-08-12T14:03:17.750Z,95762.00
2022-08-12T14:07:20.542Z,95753.00
2022-08-12T14:11:25.404Z,95770.00
2022-08-12T14:15:37.240Z,95756.00
2022-08-12T14:20:01.788Z,95760.00
2022-08-12T14:24:09.570Z,95765.00
2022-08-12T14:28:16.966Z,95769.00
2022-08-12T14:32:21.894Z,95767.00
2022-08-12T14:36:27.697Z,95764.00
2022-08-12T14:40:31.187Z,95763.00
2022-08-12T14:44:57.668Z,95758.00
2022-08-12T14:48:58.881Z,95765.00
2022-08-12T14:57:56.866Z,95757.00
2022-08-12T15:02:00.429Z,95766.00
2022-08-12T15:06:39.462Z,95752.00
2022-08-12T15:10:32.434Z,95763.00
2022-08-12T15:14:38.129Z,95764.00
2022-08-12T15:18:55.159Z,95766.00
2022-08-12T15:23:00.864Z,95758.00
2022-08-12T15:27:04.013Z,95761.00
2022-08-12T15:31:28.036Z,95756.00
2022-08-12T15:35:53.240Z,95752.00
2022-08-12T15:40:00.922Z,95762.00
2022-08-12T15:44:37.323Z,95756.00
2022-08-12T15:48:27.206Z,95748.00
2022-08-12T15:52:33.354Z,95749.00
2022-08-12T15:56:38.195Z,95752.00
2022-08-12T16:00:42.119Z,95746.00
2022-08-12T16:04:44.953Z,95746.00
2022-08-12T16:08:48.666Z,95742.00
2022-08-12T16:12:56.341Z,95763.00
2022-08-12T16:16:59.110Z,95757.00
2022-08-12T16:21:02.769Z,95755.00
2022-08-12T16:25:07.549Z,95763.00
2022-08-12T16:29:15.371Z,95773.00
2022-08-12T16:33:19.545Z,95774.00
2022-08-12T16:37:22.975Z,95770.00
2022-08-12T16:41:39.464Z,95772.00
2022-08-12T16:46:07.735Z,95773.00
2022-08-12T16:50:09.886Z,95768.00
2022-08-12T16:54:18.863Z,95765.00
2022-08-12T16:58:30.317Z,95769.00
2022-08-12T17:02:37.871Z,95775.00
2022-08-12T17:06:44.347Z,95768.00
2022-08-12T17:10:52.638Z,95763.00
2022-08-12T17:14:56.281Z,95756.00
2022-08-12T17:19:03.359Z,95762.00
2022-08-12T17:23:14.358Z,95761.00
2022-08-12T17:27:17.555Z,95752.00
2022-08-12T17:32:00.233Z,95765.00
2022-08-12T17:35:49.959Z,95763.00
2022-08-12T17:40:12.770Z,95775.00
2022-08-12T17:44:16.583Z,95775.00
2022-08-12T17:48:21.820Z,95776.00
2022-08-12T17:52:33.334Z,95768.00
2022-08-12T17:56:37.887Z,95771.00
2022-08-12T18:00:45.094Z,95779.00
2022-08-12T18:05:03.121Z,95775.00
2022-08-12T18:09:09.834Z,95780.00
2022-08-12T18:13:13.490Z,95782.00
2022-08-12T18:17:39.495Z,95780.00
2022-08-12T18:22:01.160Z,95793.00
2022-08-12T18:26:26.419Z,95786.00
2022-08-12T18:30:31.298Z,95793.00
2022-08-12T18:34:34.970Z,95792.00
2022-08-12T18:38:38.130Z,95792.00
2022-08-12T18:42:46.848Z,95799.00
2022-08-12T18:47:02.063Z,95796.00
2022-08-12T18:51:09.177Z,95801.00
2022-08-12T18:55:13.526Z,95807.00
2022-08-12T19:00:01.334Z,95810.00
2022-08-12T19:03:57.331Z,95811.00
2022-08-12T19:08:03.054Z,95815.00
2022-08-12T19:12:25.126Z,95796.00
2022-08-12T19:16:38.764Z,95798.00
2022-08-12T19:20:42.802Z,95798.00
2022-08-12T19:25:08.814Z,95797.00
2022-08-12T19:29:11.757Z,95803.00
2022-08-12T19:33:19.254Z,95805.00
2022-08-12T19:38:04.465Z,95809.00
2022-08-12T19:42:01.361Z,95798.00
2022-08-12T19:46:06.146Z,95804.00
2022-08-12T19:50:11.846Z,95801.00
2022-08-12T19:54:15.187Z,95804.00
2022-08-12T19:58:18.439Z,95806.00
2022-08-12T20:02:32.769Z,95807.00
2022-08-12T20:06:41.743Z,95810.00
2022-08-12T20:10:47.146Z,95811.00
2022-08-12T20:14:53.795Z,95816.00
2022-08-12T20:18:58.033Z,95808.00
2022-08-12T20:23:08.690Z,95817.00
2022-08-12T20:27:29.390Z,95809.00
2022-08-12T20:31:37.414Z,95801.00
2022-08-12T20:36:14.019Z,95802.00
2022-08-12T20:40:05.775Z,95805.00
2022-08-12T20:44:16.871Z,95802.00
2022-08-12T20:48:21.563Z,95807.00
2022-08-12T20:52:30.057Z,95811.00
2022-08-12T20:56:37.056Z,95807.00
2022-08-12T21:00:39.938Z,95803.00
2022-08-12T21:05:00.267Z,95806.00
2022-08-12T21:09:02.909Z,95810.00
2022-08-12T21:13:20.146Z,95803.00
2022-08-12T21:17:23.846Z,95797.00
2022-08-12T21:21:50.100Z,95806.00
2022-08-12T21:25:56.685Z,95805.00
2022-08-12T21:30:06.655Z,95804.00
2022-08-12T21:34:09.659Z,95791.00
2022-08-12T21:38:12.447Z,95792.00
2022-08-12T21:42:15.698Z,95793.00
2022-08-12T21:46:33.778Z,95792.00
2022-08-12T21:50:41.313Z,95786.00
2022-08-12T21:54:46.384Z,95798.00
2022-08-12T21:58:49.150Z,95805.00
2022-08-12T22:03:10.622Z,95809.00
2022-08-12T22:07:13.394Z,95788.00
2022-08-12T22:11:23.646Z,95793.00
2022-08-12T22:15:45.463Z,95789.00
2022-08-12T22:19:55.503Z,95792.00
2022-08-12T22:24:05.478Z,95775.00
2022-08-12T22:28:26.113Z,95778.00
2022-08-12T22:32:30.089Z,95779.00
2022-08-12T22:36:34.482Z,95772.00
2022-08-12T22:40:37.303Z,95773.00
2022-08-12T22:44:57.671Z,95765.00
2022-08-12T22:49:00.245Z,95769.00
2022-08-12T22:53:16.215Z,95753.00
2022-08-12T22:57:20.382Z,95748.00
2022-08-12T23:01:52.238Z,95750.00
2022-08-12T23:06:05.312Z,95750.00
2022-08-12T23:10:15.313Z,95741.00
2022-08-12T23:14:24.857Z,95739.00
2022-08-12T23:18:33.469Z,95738.00
2022-08-12T23:22:37.399Z,95741.00
2022-08-12T23:26:58.829Z,95730.00
2022-08-12T23:31:04.804Z,95730.00
2022-08-12T23:35:09.475Z,95734.00
2022-08-12T23:40:13.900Z,95732.00
2022-08-12T23:43:50.167Z,95730.00
2022-08-12T23:47:54.110Z,95726.00
2022-08-12T23:52:11.543Z,95726.00
2022-08-12T23:56:16.256Z,95717.00
